Terminal Aerodrome Forecast
Issued by NWS Buffalo, NY

Home | Current Version | Previous Version | Text Only | Print | Product List | Glossary On
Versions: 1 2 3 4 5 6 7 8 9 10 11 12 13 14 15 16 17 18 19 20 21 22 23 24 25 26 27 28 29 30
000
FTUS41 KBUF 200029 AAC
TAFART
TAF AMD
KART 200029Z 2000/2024 24004KT 4SM BR BKN004 OVC028
     FM200300 00000KT 5SM BR SCT004 OVC020
     FM201100 11004KT P6SM BKN025
     FM201600 12005KT P6SM SCT025=

USA.gov is the U.S. government's official web portal to all federal, state and local government web resources and services.